createdAt,value
2018-12-23T00:00:46.491Z,92.92
2018-12-23T00:03:18.798Z,93.39
2018-12-23T00:05:51.092Z,93.20
2018-12-23T00:08:23.385Z,93.45
2018-12-23T00:10:55.689Z,93.29
2018-12-23T00:13:28.128Z,92.70
2018-12-23T00:16:00.415Z,93.36
2018-12-23T00:18:32.688Z,92.75
2018-12-23T00:21:04.936Z,93.09
2018-12-23T00:23:37.207Z,93.40
2018-12-23T00:26:09.508Z,93.87
2018-12-23T00:28:41.797Z,93.86
2018-12-23T00:31:14.069Z,93.17
2018-12-23T00:33:46.323Z,93.43
2018-12-23T00:36:18.624Z,93.62
2018-12-23T00:38:50.933Z,94.13
2018-12-23T00:41:23.199Z,93.36
2018-12-23T00:43:55.591Z,93.40
2018-12-23T00:46:27.865Z,93.56
2018-12-23T00:49:00.124Z,93.10
2018-12-23T00:51:32.383Z,93.76
2018-12-23T00:54:04.652Z,93.22
2018-12-23T00:56:36.864Z,93.30
2018-12-23T00:59:09.203Z,93.24
2018-12-23T01:01:41.437Z,93.08
2018-12-23T01:04:13.757Z,93.70
2018-12-23T01:06:46.004Z,93.00
2018-12-23T01:09:19.216Z,92.94
2018-12-23T01:11:51.475Z,92.94
2018-12-23T01:14:23.722Z,92.94
2018-12-23T01:16:55.970Z,92.92
2018-12-23T01:19:28.250Z,93.23
2018-12-23T01:22:00.519Z,93.53
2018-12-23T01:24:32.762Z,93.37
2018-12-23T01:27:05.001Z,92.81
2018-12-23T01:29:37.326Z,92.96
2018-12-23T01:32:09.592Z,92.87
2018-12-23T01:34:41.870Z,91.00
2018-12-23T01:37:14.176Z,92.13
2018-12-23T01:39:46.458Z,92.24
2018-12-23T01:42:18.700Z,91.77
2018-12-23T01:44:51.079Z,90.86
2018-12-23T01:47:23.366Z,91.61
2018-12-23T01:49:55.616Z,92.03
2018-12-23T01:52:27.914Z,92.43
2018-12-23T01:55:00.153Z,92.11
2018-12-23T01:57:32.396Z,92.61
2018-12-23T02:00:05.425Z,92.90
2018-12-23T02:02:37.664Z,93.30
2018-12-23T02:05:09.933Z,93.46
2018-12-23T02:07:42.178Z,92.65
2018-12-23T02:10:14.441Z,93.25
2018-12-23T02:12:46.680Z,92.52
2018-12-23T02:15:18.995Z,93.24
2018-12-23T02:17:51.231Z,93.50
2018-12-23T02:20:23.508Z,93.09
2018-12-23T02:22:55.822Z,92.84
2018-12-23T02:25:28.167Z,93.81
2018-12-23T02:28:00.444Z,93.54
2018-12-23T02:30:32.959Z,93.63
2018-12-23T02:33:05.172Z,94.00
2018-12-23T02:35:37.430Z,94.14
2018-12-23T02:38:09.667Z,93.52
2018-12-23T02:40:41.928Z,93.69
2018-12-23T02:43:14.145Z,93.88
2018-12-23T02:45:46.408Z,94.00
2018-12-23T02:48:18.650Z,93.86
2018-12-23T02:50:50.916Z,93.28
2018-12-23T02:53:23.121Z,93.36
2018-12-23T02:55:55.379Z,93.91
2018-12-23T02:58:27.769Z,93.72
2018-12-23T03:01:00.127Z,93.89
2018-12-23T03:03:32.376Z,93.28
2018-12-23T03:06:06.149Z,93.96
2018-12-23T03:08:38.856Z,93.24
2018-12-23T03:11:11.083Z,93.47
2018-12-23T03:13:43.336Z,93.50
2018-12-23T03:16:15.588Z,93.42
2018-12-23T03:18:47.866Z,94.10
2018-12-23T03:21:20.101Z,93.33
2018-12-23T03:23:52.354Z,94.03
2018-12-23T03:26:24.616Z,93.64
2018-12-23T03:28:56.875Z,93.66
2018-12-23T03:31:29.097Z,94.00
2018-12-23T03:34:01.369Z,93.77
2018-12-23T03:36:33.580Z,94.10
2018-12-23T03:39:06.740Z,93.91
2018-12-23T03:41:39.041Z,93.77
2018-12-23T03:44:11.263Z,94.13
2018-12-23T03:46:43.471Z,93.76
2018-12-23T03:49:15.717Z,94.37
2018-12-23T03:51:47.953Z,94.10
2018-12-23T03:54:20.193Z,93.47
2018-12-23T03:56:52.431Z,93.69
2018-12-23T03:59:24.664Z,93.84
2018-12-23T04:01:56.901Z,93.60
2018-12-23T04:04:29.149Z,94.24
2018-12-23T04:07:01.370Z,93.54
2018-12-23T04:09:33.697Z,93.44
2018-12-23T04:12:05.925Z,93.53
2018-12-23T04:14:38.197Z,93.81
2018-12-23T04:17:10.425Z,94.08
2018-12-23T04:19:42.660Z,93.41
2018-12-23T04:22:14.909Z,94.22
2018-12-23T04:24:47.169Z,94.35
2018-12-23T04:27:19.432Z,93.79
2018-12-23T04:29:51.689Z,93.99
2018-12-23T04:32:23.905Z,93.36
2018-12-23T04:34:56.165Z,93.87
2018-12-23T04:37:28.405Z,94.15
2018-12-23T04:40:00.657Z,93.58
2018-12-23T04:42:32.886Z,93.71
2018-12-23T04:45:05.383Z,94.09
2018-12-23T04:47:37.728Z,93.54
2018-12-23T04:50:09.970Z,93.53
2018-12-23T04:52:42.307Z,93.82
2018-12-23T04:55:14.548Z,93.68
2018-12-23T04:57:46.761Z,93.18
2018-12-23T05:00:19.016Z,93.83
2018-12-23T05:02:51.236Z,93.93
2018-12-23T05:05:23.476Z,93.64
2018-12-23T05:07:55.791Z,93.43
2018-12-23T05:10:28.064Z,93.51
2018-12-23T05:13:00.293Z,93.19
2018-12-23T05:15:32.517Z,93.50
2018-12-23T05:18:04.754Z,92.93
2018-12-23T05:20:36.973Z,92.95
2018-12-23T05:23:09.221Z,92.68
2018-12-23T05:25:41.439Z,93.10
2018-12-23T05:28:13.712Z,93.84
2018-12-23T05:30:45.956Z,93.36
2018-12-23T05:33:18.181Z,93.37
2018-12-23T05:35:50.421Z,93.36
2018-12-23T05:38:22.796Z,93.71
2018-12-23T05:40:55.017Z,93.39
2018-12-23T05:43:27.284Z,93.51
2018-12-23T05:45:59.612Z,93.33
2018-12-23T05:48:31.982Z,93.45
2018-12-23T05:51:04.267Z,93.24
2018-12-23T05:53:36.511Z,93.57
2018-12-23T05:56:08.708Z,93.12
2018-12-23T05:58:40.950Z,93.07
2018-12-23T06:01:13.415Z,93.09
2018-12-23T06:03:45.663Z,93.86
2018-12-23T06:06:17.907Z,93.19
2018-12-23T06:08:50.199Z,93.77
2018-12-23T06:11:22.423Z,93.07
2018-12-23T06:13:54.663Z,94.14
2018-12-23T06:16:26.872Z,93.74
2018-12-23T06:18:59.121Z,94.31
2018-12-23T06:21:31.340Z,93.21
2018-12-23T06:24:03.611Z,93.43
2018-12-23T06:26:35.847Z,93.87
2018-12-23T06:29:08.088Z,93.89
2018-12-23T06:31:40.327Z,94.05
2018-12-23T06:34:12.568Z,93.72
2018-12-23T06:36:44.788Z,93.82
2018-12-23T06:39:17.140Z,94.01
2018-12-23T06:41:49.394Z,93.85
2018-12-23T06:44:21.665Z,94.27
2018-12-23T06:46:53.914Z,93.85
2018-12-23T06:49:26.168Z,93.38
2018-12-23T06:51:58.393Z,93.50
2018-12-23T06:54:30.668Z,93.52
2018-12-23T06:57:02.886Z,94.10
2018-12-23T06:59:35.123Z,94.05
2018-12-23T07:02:07.335Z,93.70
2018-12-23T07:04:39.615Z,94.40
2018-12-23T07:07:18.550Z,93.42
2018-12-23T07:09:46.175Z,93.43
2018-12-23T07:12:18.418Z,93.89
2018-12-23T07:14:50.704Z,93.21
2018-12-23T07:17:23.196Z,93.45
2018-12-23T07:19:55.506Z,93.80
2018-12-23T07:22:27.765Z,93.55
2018-12-23T07:24:59.979Z,93.62
2018-12-23T07:27:32.226Z,93.97
2018-12-23T07:30:04.640Z,94.34
2018-12-23T07:32:36.889Z,93.82
2018-12-23T07:35:09.113Z,93.21
2018-12-23T07:37:41.421Z,94.17
2018-12-23T07:40:13.725Z,93.15
2018-12-23T07:42:46.869Z,93.65
2018-12-23T07:45:19.124Z,93.83
2018-12-23T07:47:51.371Z,93.75
2018-12-23T07:50:23.596Z,94.17
2018-12-23T07:52:55.884Z,93.63
2018-12-23T07:55:28.150Z,94.07
2018-12-23T07:58:00.424Z,93.53
2018-12-23T08:00:32.663Z,93.83
2018-12-23T08:03:04.971Z,93.56
2018-12-23T08:05:37.225Z,93.91
2018-12-23T08:08:09.498Z,94.44
2018-12-23T08:10:41.840Z,94.18
2018-12-23T08:13:14.145Z,94.30
2018-12-23T08:15:46.435Z,93.54
2018-12-23T08:18:18.723Z,93.37
2018-12-23T08:20:50.947Z,93.61
2018-12-23T08:23:23.217Z,94.08
2018-12-23T08:25:55.493Z,94.20
2018-12-23T08:28:27.855Z,93.90
2018-12-23T08:31:00.161Z,94.02
2018-12-23T08:33:32.553Z,94.34
2018-12-23T08:36:04.841Z,94.15
2018-12-23T08:38:37.117Z,93.64
2018-12-23T08:41:09.367Z,93.75
2018-12-23T08:43:41.628Z,93.80
2018-12-23T08:46:13.929Z,92.94
2018-12-23T08:48:46.261Z,93.08
2018-12-23T08:51:19.437Z,92.78
2018-12-23T08:53:51.713Z,92.37
2018-12-23T08:56:24.012Z,93.24
2018-12-23T08:58:56.416Z,92.43
2018-12-23T09:01:28.779Z,92.95
2018-12-23T09:04:01.015Z,92.33
2018-12-23T09:06:33.296Z,92.71
2018-12-23T09:09:06.076Z,91.38
2018-12-23T09:11:42.785Z,92.01
2018-12-23T09:14:12.677Z,92.07
2018-12-23T09:16:44.954Z,92.54
2018-12-23T09:19:17.257Z,92.79
2018-12-23T09:21:49.610Z,92.74
2018-12-23T09:24:21.930Z,91.04
2018-12-23T09:26:54.227Z,91.65
2018-12-23T09:29:26.843Z,91.69
2018-12-23T09:31:59.156Z,91.22
2018-12-23T09:34:31.429Z,90.75
2018-12-23T09:37:03.788Z,90.60
2018-12-23T09:39:36.133Z,91.25
2018-12-23T09:42:08.420Z,90.98
2018-12-23T09:44:40.713Z,90.72
2018-12-23T09:47:13.104Z,90.65
2018-12-23T09:49:45.419Z,90.81
2018-12-23T09:52:17.752Z,91.22
2018-12-23T09:54:50.041Z,90.98
2018-12-23T09:57:22.573Z,90.45
2018-12-23T09:59:55.307Z,90.26
2018-12-23T10:02:27.758Z,87.91
2018-12-23T10:05:00.137Z,89.23
2018-12-23T10:07:32.791Z,89.54
2018-12-23T10:10:05.595Z,87.28
2018-12-23T10:12:37.931Z,86.90
2018-12-23T10:15:10.329Z,87.69
2018-12-23T10:17:42.722Z,86.47
2018-12-23T10:20:15.053Z,87.51
2018-12-23T10:22:47.603Z,86.65
2018-12-23T10:25:19.908Z,86.58
2018-12-23T10:27:52.225Z,86.08
2018-12-23T10:30:24.593Z,84.28
2018-12-23T10:32:56.932Z,85.39
2018-12-23T10:35:32.759Z,85.08
2018-12-23T10:38:05.274Z,84.28
2018-12-23T10:40:37.608Z,85.47
2018-12-23T10:43:09.893Z,85.72
2018-12-23T10:45:42.245Z,86.20
2018-12-23T10:48:14.635Z,85.98
2018-12-23T10:50:46.923Z,86.37
2018-12-23T10:53:19.236Z,82.40
2018-12-23T10:55:51.544Z,84.11
2018-12-23T10:58:23.887Z,82.89
2018-12-23T11:00:56.258Z,81.89
2018-12-23T11:03:28.508Z,81.77
2018-12-23T11:06:00.875Z,81.94
2018-12-23T11:08:33.193Z,82.10
2018-12-23T11:11:05.505Z,82.46
2018-12-23T11:13:37.800Z,83.47
2018-12-23T11:16:10.131Z,82.93
2018-12-23T11:18:42.413Z,83.16
2018-12-23T11:21:14.760Z,84.46
2018-12-23T11:23:47.024Z,83.31
2018-12-23T11:26:19.338Z,84.44
2018-12-23T11:28:51.583Z,85.06
2018-12-23T11:31:23.860Z,84.84
2018-12-23T11:33:56.174Z,85.05
2018-12-23T11:36:28.538Z,85.22
2018-12-23T11:39:00.813Z,85.25
2018-12-23T11:41:33.148Z,85.52
2018-12-23T11:44:05.610Z,85.47
2018-12-23T11:46:37.974Z,82.29
2018-12-23T11:49:10.255Z,82.35
2018-12-23T11:51:42.544Z,81.62
2018-12-23T11:54:14.824Z,83.92
2018-12-23T11:56:47.226Z,83.68
2018-12-23T11:59:19.533Z,79.07
2018-12-23T12:01:52.026Z,79.92
2018-12-23T12:04:24.391Z,79.55
2018-12-23T12:06:56.735Z,79.94
2018-12-23T12:09:29.029Z,79.57
2018-12-23T12:12:01.352Z,80.22
2018-12-23T12:14:33.621Z,80.92
2018-12-23T12:17:05.973Z,79.62
2018-12-23T12:19:38.271Z,80.82
2018-12-23T12:22:10.625Z,81.64
2018-12-23T12:24:42.913Z,81.65
2018-12-23T12:27:15.266Z,80.94
2018-12-23T12:29:47.581Z,81.45
2018-12-23T12:32:19.879Z,81.49
2018-12-23T12:34:52.180Z,80.58
2018-12-23T12:37:24.472Z,82.00
2018-12-23T12:39:56.724Z,81.91
2018-12-23T12:42:29.029Z,83.20
2018-12-23T12:45:01.361Z,83.53
2018-12-23T12:47:33.813Z,83.90
2018-12-23T12:50:06.189Z,84.37
2018-12-23T12:52:38.467Z,85.23
2018-12-23T12:55:10.749Z,85.53
2018-12-23T12:57:43.118Z,85.81
2018-12-23T13:00:15.505Z,86.31
2018-12-23T13:02:47.840Z,86.73
2018-12-23T13:05:20.221Z,87.27
2018-12-23T13:07:52.524Z,87.77
2018-12-23T13:10:24.821Z,88.42
2018-12-23T13:12:57.106Z,88.39
2018-12-23T13:15:29.410Z,88.26
2018-12-23T13:18:01.736Z,87.99
2018-12-23T13:20:34.113Z,88.51
2018-12-23T13:23:06.527Z,88.74
2018-12-23T13:25:38.948Z,89.18
2018-12-23T13:28:11.268Z,89.23
2018-12-23T13:30:43.618Z,89.63
2018-12-23T13:33:16.017Z,89.67
2018-12-23T13:35:48.424Z,89.45
2018-12-23T13:38:20.773Z,89.76
2018-12-23T13:41:12.851Z,89.84
2018-12-23T13:43:55.762Z,89.65
2018-12-23T13:46:38.500Z,89.75
2018-12-23T13:49:28.941Z,90.49
2018-12-23T13:52:48.274Z,90.33
2018-12-23T13:55:41.308Z,90.52
2018-12-23T13:58:24.449Z,90.32
2018-12-23T14:01:07.901Z,90.27
2018-12-23T14:04:22.930Z,90.55
2018-12-23T14:07:06.699Z,91.02
2018-12-23T14:09:57.654Z,91.13
2018-12-23T14:12:30.010Z,90.79
2018-12-23T14:15:02.377Z,91.04
2018-12-23T14:17:34.724Z,90.95
2018-12-23T14:20:07.031Z,91.54
2018-12-23T14:22:39.446Z,91.18
2018-12-23T14:25:11.870Z,91.21
2018-12-23T14:27:44.259Z,90.91
2018-12-23T14:30:16.616Z,90.43
2018-12-23T14:32:48.976Z,90.65
2018-12-23T14:35:21.273Z,89.46
2018-12-23T14:37:53.605Z,89.78
2018-12-23T14:40:25.984Z,90.14
2018-12-23T14:42:58.376Z,89.27
2018-12-23T14:45:30.720Z,90.16
2018-12-23T14:48:03.209Z,90.63
2018-12-23T14:50:35.542Z,91.05
2018-12-23T14:53:07.825Z,91.66
2018-12-23T14:55:40.196Z,91.69
2018-12-23T14:58:12.506Z,91.66
2018-12-23T15:00:44.876Z,91.63
2018-12-23T15:03:17.200Z,91.83
2018-12-23T15:05:49.526Z,91.98
2018-12-23T15:08:21.923Z,92.23
2018-12-23T15:10:54.284Z,91.95
2018-12-23T15:13:26.641Z,92.06
2018-12-23T15:15:59.033Z,92.73
2018-12-23T15:18:36.481Z,91.58
2018-12-23T15:21:08.813Z,92.35
2018-12-23T15:23:41.112Z,91.59
2018-12-23T15:26:13.524Z,91.67
2018-12-23T15:28:45.849Z,92.21
2018-12-23T15:31:18.282Z,91.84
2018-12-23T15:33:50.573Z,92.49
2018-12-23T15:36:22.976Z,91.96
2018-12-23T15:38:55.321Z,92.16
2018-12-23T15:41:27.609Z,92.38
2018-12-23T15:44:00.021Z,91.97
2018-12-23T15:46:32.435Z,92.29
2018-12-23T15:49:04.795Z,92.47
2018-12-23T15:51:37.162Z,92.65
2018-12-23T15:54:09.508Z,92.58
2018-12-23T15:56:41.815Z,92.98
2018-12-23T15:59:14.148Z,92.99
2018-12-23T16:01:46.528Z,92.84
2018-12-23T16:04:19.115Z,92.96
2018-12-23T16:06:51.439Z,92.49
2018-12-23T16:09:23.765Z,92.85
2018-12-23T16:11:56.070Z,92.96
2018-12-23T16:14:28.456Z,92.67
2018-12-23T16:17:00.740Z,93.35
2018-12-23T16:19:33.097Z,93.24
2018-12-23T16:22:05.518Z,93.02
2018-12-23T16:24:37.873Z,93.07
2018-12-23T16:27:10.229Z,92.82
2018-12-23T16:29:42.620Z,93.14
2018-12-23T16:32:14.996Z,92.95
2018-12-23T16:34:47.368Z,93.53
2018-12-23T16:37:19.679Z,92.94
2018-12-23T16:39:59.420Z,92.70
2018-12-23T16:42:26.381Z,92.46
2018-12-23T16:44:58.717Z,92.63
2018-12-23T16:47:31.060Z,92.94
2018-12-23T16:50:03.794Z,93.09
2018-12-23T16:52:36.120Z,92.62
2018-12-23T16:55:08.506Z,93.07
2018-12-23T16:57:40.837Z,93.13
2018-12-23T17:00:14.514Z,92.96
2018-12-23T17:02:46.814Z,93.27
2018-12-23T17:05:19.240Z,93.60
2018-12-23T17:07:51.535Z,93.80
2018-12-23T17:10:23.840Z,92.62
2018-12-23T17:12:56.224Z,92.51
2018-12-23T17:15:28.571Z,92.80
2018-12-23T17:18:00.983Z,93.38
2018-12-23T17:20:33.338Z,93.70
2018-12-23T17:23:05.707Z,93.68
2018-12-23T17:25:42.808Z,94.05
2018-12-23T17:28:15.135Z,94.10
2018-12-23T17:30:47.480Z,94.08
2018-12-23T17:33:19.799Z,94.13
2018-12-23T17:35:52.327Z,93.41
2018-12-23T17:38:24.674Z,93.47
2018-12-23T17:40:56.976Z,94.12
2018-12-23T17:43:29.327Z,93.89
2018-12-23T17:46:01.648Z,94.07
2018-12-23T17:48:33.987Z,94.45
2018-12-23T17:51:06.340Z,93.69
2018-12-23T17:53:38.705Z,94.03
2018-12-23T17:56:11.025Z,94.20
2018-12-23T17:58:43.391Z,93.99
2018-12-23T18:01:15.812Z,94.43
2018-12-23T18:03:48.140Z,94.30
2018-12-23T18:06:20.485Z,94.10
2018-12-23T18:08:52.826Z,93.46
2018-12-23T18:11:25.121Z,93.87
2018-12-23T18:13:57.567Z,93.33
2018-12-23T18:16:29.980Z,93.72
2018-12-23T18:19:02.390Z,93.99
2018-12-23T18:21:34.684Z,94.02
2018-12-23T18:24:06.990Z,93.85
2018-12-23T18:26:45.075Z,94.23
2018-12-23T18:29:13.708Z,93.75
2018-12-23T18:31:46.052Z,93.91
2018-12-23T18:34:18.385Z,93.50
2018-12-23T18:36:50.704Z,93.22
2018-12-23T18:39:23.065Z,93.49
2018-12-23T18:41:55.353Z,93.14
2018-12-23T18:44:27.655Z,93.40
2018-12-23T18:46:59.998Z,93.50
2018-12-23T18:49:32.301Z,93.77
2018-12-23T18:52:04.652Z,93.55
2018-12-23T18:54:37.001Z,93.73
2018-12-23T18:57:11.248Z,93.66
2018-12-23T18:59:45.490Z,93.26
2018-12-23T19:02:27.309Z,93.41
2018-12-23T19:04:59.653Z,93.47
2018-12-23T19:07:31.991Z,93.43
2018-12-23T19:10:14.265Z,93.11
2018-12-23T19:13:15.737Z,93.08
2018-12-23T19:16:09.836Z,93.46
2018-12-23T19:23:24.665Z,93.59
2018-12-23T19:26:34.427Z,93.78
2018-12-23T19:29:45.391Z,93.96
2018-12-23T19:32:56.335Z,93.67
2018-12-23T19:36:07.324Z,93.91
2018-12-23T19:42:24.849Z,93.54
2018-12-23T19:45:21.504Z,93.55
2018-12-23T19:48:32.488Z,93.65
2018-12-23T19:51:40.404Z,93.73
2018-12-23T19:54:41.621Z,93.49
2018-12-23T19:57:52.406Z,93.38
2018-12-23T20:00:53.779Z,93.54
2018-12-23T20:03:40.288Z,93.72
2018-12-23T20:07:02.330Z,93.34
2018-12-23T20:10:17.429Z,93.09
2018-12-23T20:13:46.105Z,93.00
2018-12-23T20:16:58.520Z,92.82
2018-12-23T20:20:18.567Z,92.82
2018-12-23T20:23:17.287Z,93.16
2018-12-23T20:26:25.605Z,92.81
2018-12-23T20:29:41.105Z,93.02
2018-12-23T20:33:06.858Z,93.40
2018-12-23T20:36:24.177Z,93.32
2018-12-23T20:39:27.839Z,92.97
2018-12-23T20:42:34.443Z,92.99
2018-12-23T20:46:19.043Z,93.04
2018-12-23T20:49:28.601Z,93.02
2018-12-23T20:52:45.431Z,93.32
2018-12-23T20:55:46.177Z,93.33
2018-12-23T20:58:39.568Z,93.16
2018-12-23T21:02:08.122Z,92.95
2018-12-23T21:05:22.911Z,93.36
2018-12-23T21:08:24.380Z,93.43
2018-12-23T21:11:28.764Z,93.29
2018-12-23T21:14:42.590Z,93.00
2018-12-23T21:17:58.721Z,92.73
2018-12-23T21:20:51.396Z,92.82
2018-12-23T21:24:00.227Z,92.68
2018-12-23T21:26:56.066Z,92.76
2018-12-23T21:29:50.326Z,93.07
2018-12-23T21:33:25.478Z,92.96
2018-12-23T21:36:21.650Z,92.96
2018-12-23T21:39:24.697Z,92.99
2018-12-23T21:42:28.117Z,93.24
2018-12-23T21:45:36.815Z,92.94
2018-12-23T21:48:52.569Z,93.07
2018-12-23T21:52:07.832Z,92.79
2018-12-23T21:55:23.418Z,92.57
2018-12-23T21:59:04.874Z,92.72
2018-12-23T22:02:17.737Z,92.73
2018-12-23T22:05:43.796Z,92.81
2018-12-23T22:08:52.137Z,93.05
2018-12-23T22:11:46.616Z,93.14
2018-12-23T22:14:18.624Z,92.72
2018-12-23T22:16:50.663Z,92.61
2018-12-23T22:19:22.685Z,92.35
2018-12-23T22:21:54.745Z,92.10
2018-12-23T22:24:26.776Z,91.94
2018-12-23T22:26:58.818Z,91.95
2018-12-23T22:29:30.858Z,92.01
2018-12-23T22:32:02.878Z,91.73
2018-12-23T22:34:34.870Z,91.53
2018-12-23T22:37:06.900Z,92.30
2018-12-23T22:39:38.918Z,91.84
2018-12-23T22:42:11.008Z,92.16
2018-12-23T22:44:43.017Z,92.07
2018-12-23T22:47:15.041Z,92.03
2018-12-23T22:49:47.078Z,91.97
2018-12-23T22:52:19.066Z,92.45
2018-12-23T22:54:51.138Z,92.69
2018-12-23T22:57:23.175Z,92.54
2018-12-23T22:59:55.214Z,92.55
2018-12-23T23:02:27.323Z,92.70
2018-12-23T23:04:59.355Z,92.57
2018-12-23T23:07:31.374Z,92.59
2018-12-23T23:10:03.787Z,92.50
2018-12-23T23:12:35.874Z,92.07
2018-12-23T23:15:07.913Z,92.53
2018-12-23T23:17:40.866Z,92.56
2018-12-23T23:20:12.857Z,92.61
2018-12-23T23:22:44.944Z,92.77
2018-12-23T23:25:16.966Z,92.54
2018-12-23T23:27:48.955Z,92.51
2018-12-23T23:30:20.969Z,92.54
2018-12-23T23:32:53.010Z,92.58
2018-12-23T23:35:25.022Z,92.34
2018-12-23T23:37:57.504Z,92.43
2018-12-23T23:40:29.500Z,92.42
2018-12-23T23:43:01.535Z,91.70
2018-12-23T23:45:33.582Z,91.51
2018-12-23T23:48:05.638Z,91.75
2018-12-23T23:50:37.642Z,91.75
2018-12-23T23:53:09.699Z,92.09
2018-12-23T23:55:41.765Z,92.20
2018-12-23T23:58:13.741Z,92.09
